sensor_id;sensor_type;location;lat;lon;timestamp;P1;durP1;ratioP1;P2;durP2;ratioP2
11006;SDS011;8186;57.652;11.968;2023-12-20T00:02:03;14.30;;;2.50;;
11006;SDS011;8186;57.652;11.968;2023-12-20T00:04:30;20.27;;;3.63;;
11006;SDS011;8186;57.652;11.968;2023-12-20T00:06:59;24.60;;;3.90;;
11006;SDS011;8186;57.652;11.968;2023-12-20T00:09:26;19.63;;;3.67;;
11006;SDS011;8186;57.652;11.968;2023-12-20T00:11:55;18.13;;;4.00;;
11006;SDS011;8186;57.652;11.968;2023-12-20T00:14:22;13.90;;;3.30;;
11006;SDS011;8186;57.652;11.968;2023-12-20T00:16:49;18.70;;;3.63;;
11006;SDS011;8186;57.652;11.968;2023-12-20T00:19:15;18.60;;;3.77;;
11006;SDS011;8186;57.652;11.968;2023-12-20T00:21:42;13.57;;;3.30;;
11006;SDS011;8186;57.652;11.968;2023-12-20T00:24:09;22.50;;;3.63;;
11006;SDS011;8186;57.652;11.968;2023-12-20T00:26:35;18.53;;;3.37;;
11006;SDS011;8186;57.652;11.968;2023-12-20T00:29:04;15.93;;;2.67;;
11006;SDS011;8186;57.652;11.968;2023-12-20T00:31:30;17.77;;;4.30;;
11006;SDS011;8186;57.652;11.968;2023-12-20T00:33:57;17.23;;;3.20;;
11006;SDS011;8186;57.652;11.968;2023-12-20T00:36:24;17.90;;;3.67;;
11006;SDS011;8186;57.652;11.968;2023-12-20T00:38:50;18.07;;;3.13;;
11006;SDS011;8186;57.652;11.968;2023-12-20T00:41:18;12.10;;;3.20;;
11006;SDS011;8186;57.652;11.968;2023-12-20T00:43:44;16.00;;;3.37;;
11006;SDS011;8186;57.652;11.968;2023-12-20T00:46:12;15.20;;;3.37;;
11006;SDS011;8186;57.652;11.968;2023-12-20T00:48:39;15.97;;;3.90;;
11006;SDS011;8186;57.652;11.968;2023-12-20T00:51:07;13.27;;;2.93;;
11006;SDS011;8186;57.652;11.968;2023-12-20T00:53:34;20.07;;;4.10;;
11006;SDS011;8186;57.652;11.968;2023-12-20T00:56:00;16.20;;;3.07;;
11006;SDS011;8186;57.652;11.968;2023-12-20T00:58:27;16.40;;;3.23;;
11006;SDS011;8186;57.652;11.968;2023-12-20T01:00:54;13.37;;;3.17;;
11006;SDS011;8186;57.652;11.968;2023-12-20T01:03:22;15.73;;;2.93;;
11006;SDS011;8186;57.652;11.968;2023-12-20T01:05:49;16.27;;;3.40;;
11006;SDS011;8186;57.652;11.968;2023-12-20T01:08:15;22.00;;;3.20;;
11006;SDS011;8186;57.652;11.968;2023-12-20T01:10:42;15.50;;;3.70;;
11006;SDS011;8186;57.652;11.968;2023-12-20T01:13:09;15.77;;;3.17;;
11006;SDS011;8186;57.652;11.968;2023-12-20T01:15:35;17.33;;;3.73;;
11006;SDS011;8186;57.652;11.968;2023-12-20T01:18:02;18.27;;;3.10;;
11006;SDS011;8186;57.652;11.968;2023-12-20T01:20:31;16.73;;;3.53;;
11006;SDS011;8186;57.652;11.968;2023-12-20T01:22:58;18.47;;;3.00;;
11006;SDS011;8186;57.652;11.968;2023-12-20T01:25:24;13.40;;;2.83;;
11006;SDS011;8186;57.652;11.968;2023-12-20T01:27:51;17.33;;;3.17;;
11006;SDS011;8186;57.652;11.968;2023-12-20T01:30:18;16.83;;;3.10;;
11006;SDS011;8186;57.652;11.968;2023-12-20T01:32:45;14.60;;;3.37;;
11006;SDS011;8186;57.652;11.968;2023-12-20T01:35:11;14.53;;;2.67;;
11006;SDS011;8186;57.652;11.968;2023-12-20T01:37:40;14.50;;;3.07;;
11006;SDS011;8186;57.652;11.968;2023-12-20T01:40:07;16.77;;;3.13;;
11006;SDS011;8186;57.652;11.968;2023-12-20T01:42:34;24.70;;;4.03;;
11006;SDS011;8186;57.652;11.968;2023-12-20T01:45:01;15.10;;;3.50;;
11006;SDS011;8186;57.652;11.968;2023-12-20T01:47:28;16.93;;;2.93;;
11006;SDS011;8186;57.652;11.968;2023-12-20T01:49:54;14.67;;;2.50;;
11006;SDS011;8186;57.652;11.968;2023-12-20T01:52:22;15.70;;;3.23;;
11006;SDS011;8186;57.652;11.968;2023-12-20T01:54:50;17.07;;;3.10;;
11006;SDS011;8186;57.652;11.968;2023-12-20T01:57:20;13.07;;;3.27;;
11006;SDS011;8186;57.652;11.968;2023-12-20T01:59:46;17.33;;;2.93;;
11006;SDS011;8186;57.652;11.968;2023-12-20T02:02:13;18.93;;;4.27;;
11006;SDS011;8186;57.652;11.968;2023-12-20T02:04:40;14.50;;;2.77;;
11006;SDS011;8186;57.652;11.968;2023-12-20T02:07:07;16.60;;;3.73;;
11006;SDS011;8186;57.652;11.968;2023-12-20T02:09:35;18.90;;;4.40;;
11006;SDS011;8186;57.652;11.968;2023-12-20T02:12:04;22.03;;;4.00;;
11006;SDS011;8186;57.652;11.968;2023-12-20T02:14:32;13.43;;;2.63;;
11006;SDS011;8186;57.652;11.968;2023-12-20T02:16:58;14.77;;;3.00;;
11006;SDS011;8186;57.652;11.968;2023-12-20T02:19:25;14.83;;;2.60;;
11006;SDS011;8186;57.652;11.968;2023-12-20T02:22:05;15.63;;;3.10;;
11006;SDS011;8186;57.652;11.968;2023-12-20T02:24:33;16.93;;;3.70;;
11006;SDS011;8186;57.652;11.968;2023-12-20T02:27:00;20.13;;;3.43;;
11006;SDS011;8186;57.652;11.968;2023-12-20T02:29:26;15.10;;;2.87;;
11006;SDS011;8186;57.652;11.968;2023-12-20T02:31:53;15.00;;;3.30;;
11006;SDS011;8186;57.652;11.968;2023-12-20T02:34:20;9.20;;;2.23;;
11006;SDS011;8186;57.652;11.968;2023-12-20T02:36:46;16.73;;;3.20;;
11006;SDS011;8186;57.652;11.968;2023-12-20T02:39:15;16.20;;;3.83;;
11006;SDS011;8186;57.652;11.968;2023-12-20T02:41:42;13.30;;;2.80;;
11006;SDS011;8186;57.652;11.968;2023-12-20T02:44:09;25.17;;;4.00;;
11006;SDS011;8186;57.652;11.968;2023-12-20T02:46:35;31.00;;;4.47;;
11006;SDS011;8186;57.652;11.968;2023-12-20T02:49:02;18.87;;;3.30;;
11006;SDS011;8186;57.652;11.968;2023-12-20T02:51:29;16.67;;;4.27;;
11006;SDS011;8186;57.652;11.968;2023-12-20T02:53:56;24.67;;;4.03;;
11006;SDS011;8186;57.652;11.968;2023-12-20T02:56:24;11.37;;;2.60;;
11006;SDS011;8186;57.652;11.968;2023-12-20T02:58:51;16.77;;;3.10;;
11006;SDS011;8186;57.652;11.968;2023-12-20T03:01:17;16.40;;;3.33;;
11006;SDS011;8186;57.652;11.968;2023-12-20T03:03:45;19.53;;;3.87;;
11006;SDS011;8186;57.652;11.968;2023-12-20T03:06:11;17.73;;;3.27;;
11006;SDS011;8186;57.652;11.968;2023-12-20T03:08:42;17.37;;;3.77;;
11006;SDS011;8186;57.652;11.968;2023-12-20T03:11:08;16.70;;;2.90;;
11006;SDS011;8186;57.652;11.968;2023-12-20T03:13:37;10.87;;;2.80;;
11006;SDS011;8186;57.652;11.968;2023-12-20T03:16:07;20.90;;;3.10;;
11006;SDS011;8186;57.652;11.968;2023-12-20T03:18:34;12.27;;;2.70;;
11006;SDS011;8186;57.652;11.968;2023-12-20T03:21:01;15.63;;;2.90;;
11006;SDS011;8186;57.652;11.968;2023-12-20T03:23:28;13.87;;;2.60;;
11006;SDS011;8186;57.652;11.968;2023-12-20T03:25:55;15.17;;;3.13;;
11006;SDS011;8186;57.652;11.968;2023-12-20T03:28:22;14.10;;;2.63;;
11006;SDS011;8186;57.652;11.968;2023-12-20T03:30:50;16.00;;;3.50;;
11006;SDS011;8186;57.652;11.968;2023-12-20T03:33:17;17.03;;;2.87;;
11006;SDS011;8186;57.652;11.968;2023-12-20T03:35:44;11.47;;;2.50;;
11006;SDS011;8186;57.652;11.968;2023-12-20T03:38:11;13.50;;;2.57;;
11006;SDS011;8186;57.652;11.968;2023-12-20T03:40:37;12.63;;;2.33;;
11006;SDS011;8186;57.652;11.968;2023-12-20T03:43:04;16.93;;;3.33;;
11006;SDS011;8186;57.652;11.968;2023-12-20T03:45:31;13.07;;;2.90;;
11006;SDS011;8186;57.652;11.968;2023-12-20T03:47:59;10.17;;;2.70;;
11006;SDS011;8186;57.652;11.968;2023-12-20T03:50:26;14.27;;;3.17;;
11006;SDS011;8186;57.652;11.968;2023-12-20T03:52:53;13.30;;;2.63;;
11006;SDS011;8186;57.652;11.968;2023-12-20T03:55:19;11.07;;;3.03;;
11006;SDS011;8186;57.652;11.968;2023-12-20T03:57:46;16.97;;;2.47;;
11006;SDS011;8186;57.652;11.968;2023-12-20T04:00:13;10.60;;;2.10;;
11006;SDS011;8186;57.652;11.968;2023-12-20T04:02:41;7.63;;;1.70;;
11006;SDS011;8186;57.652;11.968;2023-12-20T04:05:09;8.80;;;1.97;;
11006;SDS011;8186;57.652;11.968;2023-12-20T04:07:36;10.97;;;2.63;;
11006;SDS011;8186;57.652;11.968;2023-12-20T04:10:04;11.07;;;2.10;;
11006;SDS011;8186;57.652;11.968;2023-12-20T04:12:32;7.43;;;1.83;;
11006;SDS011;8186;57.652;11.968;2023-12-20T04:14:58;7.80;;;2.40;;
11006;SDS011;8186;57.652;11.968;2023-12-20T04:17:25;11.87;;;2.00;;
11006;SDS011;8186;57.652;11.968;2023-12-20T04:19:52;8.33;;;1.73;;
11006;SDS011;8186;57.652;11.968;2023-12-20T04:22:20;11.80;;;1.97;;
11006;SDS011;8186;57.652;11.968;2023-12-20T04:24:47;11.07;;;2.17;;
11006;SDS011;8186;57.652;11.968;2023-12-20T04:27:14;12.07;;;2.20;;
11006;SDS011;8186;57.652;11.968;2023-12-20T04:29:40;12.80;;;2.70;;
11006;SDS011;8186;57.652;11.968;2023-12-20T04:32:07;14.80;;;2.13;;
11006;SDS011;8186;57.652;11.968;2023-12-20T04:34:34;16.77;;;2.57;;
11006;SDS011;8186;57.652;11.968;2023-12-20T04:37:01;13.13;;;2.77;;
11006;SDS011;8186;57.652;11.968;2023-12-20T04:39:29;13.77;;;2.57;;
11006;SDS011;8186;57.652;11.968;2023-12-20T04:41:56;12.40;;;2.20;;
11006;SDS011;8186;57.652;11.968;2023-12-20T04:44:23;12.23;;;2.63;;
11006;SDS011;8186;57.652;11.968;2023-12-20T04:46:50;13.83;;;2.80;;
11006;SDS011;8186;57.652;11.968;2023-12-20T04:49:16;10.23;;;2.97;;
11006;SDS011;8186;57.652;11.968;2023-12-20T04:51:43;13.43;;;2.73;;
11006;SDS011;8186;57.652;11.968;2023-12-20T04:54:10;14.23;;;2.93;;
11006;SDS011;8186;57.652;11.968;2023-12-20T04:56:38;10.17;;;2.30;;
11006;SDS011;8186;57.652;11.968;2023-12-20T04:59:05;18.53;;;3.20;;
11006;SDS011;8186;57.652;11.968;2023-12-20T05:01:32;13.90;;;2.80;;
11006;SDS011;8186;57.652;11.968;2023-12-20T05:03:58;12.60;;;2.83;;
11006;SDS011;8186;57.652;11.968;2023-12-20T05:06:25;17.50;;;3.03;;
11006;SDS011;8186;57.652;11.968;2023-12-20T05:08:52;22.97;;;3.30;;
11006;SDS011;8186;57.652;11.968;2023-12-20T05:11:19;22.67;;;3.70;;
11006;SDS011;8186;57.652;11.968;2023-12-20T05:13:47;12.63;;;3.00;;
11006;SDS011;8186;57.652;11.968;2023-12-20T05:16:14;19.20;;;3.47;;
11006;SDS011;8186;57.652;11.968;2023-12-20T05:18:42;11.97;;;2.50;;
11006;SDS011;8186;57.652;11.968;2023-12-20T05:21:09;14.43;;;2.40;;
11006;SDS011;8186;57.652;11.968;2023-12-20T05:23:36;12.53;;;3.27;;
11006;SDS011;8186;57.652;11.968;2023-12-20T05:26:03;13.27;;;2.13;;
11006;SDS011;8186;57.652;11.968;2023-12-20T05:28:30;19.10;;;3.03;;
11006;SDS011;8186;57.652;11.968;2023-12-20T05:30:58;20.83;;;3.47;;
11006;SDS011;8186;57.652;11.968;2023-12-20T05:33:24;21.23;;;4.13;;
11006;SDS011;8186;57.652;11.968;2023-12-20T05:35:51;14.10;;;2.97;;
11006;SDS011;8186;57.652;11.968;2023-12-20T05:38:18;17.67;;;2.90;;
11006;SDS011;8186;57.652;11.968;2023-12-20T05:40:45;10.00;;;2.23;;
11006;SDS011;8186;57.652;11.968;2023-12-20T05:43:11;12.57;;;2.23;;
11006;SDS011;8186;57.652;11.968;2023-12-20T05:45:38;16.40;;;3.20;;
11006;SDS011;8186;57.652;11.968;2023-12-20T05:48:06;16.77;;;3.33;;
11006;SDS011;8186;57.652;11.968;2023-12-20T05:50:33;13.30;;;2.80;;
11006;SDS011;8186;57.652;11.968;2023-12-20T05:53:00;14.63;;;2.67;;
11006;SDS011;8186;57.652;11.968;2023-12-20T05:55:27;15.63;;;2.80;;
11006;SDS011;8186;57.652;11.968;2023-12-20T05:57:54;18.37;;;2.67;;
11006;SDS011;8186;57.652;11.968;2023-12-20T06:00:21;12.50;;;2.90;;
11006;SDS011;8186;57.652;11.968;2023-12-20T06:02:47;11.03;;;1.90;;
11006;SDS011;8186;57.652;11.968;2023-12-20T06:05:15;13.43;;;2.23;;
11006;SDS011;8186;57.652;11.968;2023-12-20T06:07:42;17.60;;;2.67;;
11006;SDS011;8186;57.652;11.968;2023-12-20T06:10:10;17.80;;;2.43;;
11006;SDS011;8186;57.652;11.968;2023-12-20T06:12:36;8.70;;;2.40;;
11006;SDS011;8186;57.652;11.968;2023-12-20T06:15:04;10.43;;;2.13;;
11006;SDS011;8186;57.652;11.968;2023-12-20T06:17:31;10.53;;;2.00;;
11006;SDS011;8186;57.652;11.968;2023-12-20T06:20:00;9.97;;;1.70;;
11006;SDS011;8186;57.652;11.968;2023-12-20T06:22:30;7.47;;;2.43;;
11006;SDS011;8186;57.652;11.968;2023-12-20T06:24:57;7.30;;;1.27;;
11006;SDS011;8186;57.652;11.968;2023-12-20T06:27:24;10.30;;;2.07;;
11006;SDS011;8186;57.652;11.968;2023-12-20T06:29:51;11.97;;;2.40;;
11006;SDS011;8186;57.652;11.968;2023-12-20T06:32:20;17.97;;;2.47;;
11006;SDS011;8186;57.652;11.968;2023-12-20T06:34:48;11.97;;;2.70;;
11006;SDS011;8186;57.652;11.968;2023-12-20T06:37:15;11.57;;;2.23;;
11006;SDS011;8186;57.652;11.968;2023-12-20T06:39:43;15.13;;;2.67;;
11006;SDS011;8186;57.652;11.968;2023-12-20T06:42:10;13.67;;;2.47;;
11006;SDS011;8186;57.652;11.968;2023-12-20T06:44:37;15.90;;;2.67;;
11006;SDS011;8186;57.652;11.968;2023-12-20T06:47:04;14.10;;;2.80;;
11006;SDS011;8186;57.652;11.968;2023-12-20T06:49:31;9.30;;;2.27;;
11006;SDS011;8186;57.652;11.968;2023-12-20T06:51:58;10.73;;;1.83;;
11006;SDS011;8186;57.652;11.968;2023-12-20T06:54:24;13.53;;;2.90;;
11006;SDS011;8186;57.652;11.968;2023-12-20T06:56:52;15.40;;;3.00;;
11006;SDS011;8186;57.652;11.968;2023-12-20T06:59:19;9.63;;;2.03;;
11006;SDS011;8186;57.652;11.968;2023-12-20T07:01:47;12.67;;;2.40;;
11006;SDS011;8186;57.652;11.968;2023-12-20T07:04:15;7.53;;;2.20;;
11006;SDS011;8186;57.652;11.968;2023-12-20T07:06:45;15.03;;;2.13;;
11006;SDS011;8186;57.652;11.968;2023-12-20T07:09:12;10.77;;;2.20;;
11006;SDS011;8186;57.652;11.968;2023-12-20T07:11:40;14.20;;;2.13;;
11006;SDS011;8186;57.652;11.968;2023-12-20T07:14:08;12.80;;;2.80;;
11006;SDS011;8186;57.652;11.968;2023-12-20T07:16:35;11.17;;;2.00;;
11006;SDS011;8186;57.652;11.968;2023-12-20T07:19:02;11.40;;;2.10;;
11006;SDS011;8186;57.652;11.968;2023-12-20T07:21:28;9.53;;;2.13;;
11006;SDS011;8186;57.652;11.968;2023-12-20T07:23:55;9.73;;;1.90;;
11006;SDS011;8186;57.652;11.968;2023-12-20T07:26:22;9.60;;;1.90;;
11006;SDS011;8186;57.652;11.968;2023-12-20T07:28:49;11.00;;;2.47;;
11006;SDS011;8186;57.652;11.968;2023-12-20T07:31:17;11.40;;;2.23;;
11006;SDS011;8186;57.652;11.968;2023-12-20T07:33:44;11.17;;;3.10;;
11006;SDS011;8186;57.652;11.968;2023-12-20T07:36:12;12.77;;;2.33;;
11006;SDS011;8186;57.652;11.968;2023-12-20T07:38:39;13.45;;;3.33;;
11006;SDS011;8186;57.652;11.968;2023-12-20T07:41:09;12.40;;;2.17;;
11006;SDS011;8186;57.652;11.968;2023-12-20T07:43:35;10.37;;;2.27;;
11006;SDS011;8186;57.652;11.968;2023-12-20T07:46:05;10.57;;;2.37;;
11006;SDS011;8186;57.652;11.968;2023-12-20T07:48:37;13.23;;;2.60;;
11006;SDS011;8186;57.652;11.968;2023-12-20T07:51:04;15.33;;;2.53;;
11006;SDS011;8186;57.652;11.968;2023-12-20T07:53:33;13.67;;;2.97;;
11006;SDS011;8186;57.652;11.968;2023-12-20T07:56:00;19.50;;;3.17;;
11006;SDS011;8186;57.652;11.968;2023-12-20T07:58:27;8.60;;;2.37;;
11006;SDS011;8186;57.652;11.968;2023-12-20T08:00:55;13.20;;;2.63;;
11006;SDS011;8186;57.652;11.968;2023-12-20T08:03:22;18.03;;;3.27;;
11006;SDS011;8186;57.652;11.968;2023-12-20T08:05:50;12.70;;;3.27;;
11006;SDS011;8186;57.652;11.968;2023-12-20T08:08:16;15.60;;;3.03;;
11006;SDS011;8186;57.652;11.968;2023-12-20T08:10:43;16.87;;;2.70;;
11006;SDS011;8186;57.652;11.968;2023-12-20T08:13:10;14.83;;;2.53;;
11006;SDS011;8186;57.652;11.968;2023-12-20T08:15:37;13.50;;;2.73;;
11006;SDS011;8186;57.652;11.968;2023-12-20T08:18:04;9.23;;;2.00;;
11006;SDS011;8186;57.652;11.968;2023-12-20T08:20:31;12.30;;;2.37;;
11006;SDS011;8186;57.652;11.968;2023-12-20T08:22:59;11.10;;;2.30;;
11006;SDS011;8186;57.652;11.968;2023-12-20T08:25:26;15.17;;;2.47;;
11006;SDS011;8186;57.652;11.968;2023-12-20T08:27:53;13.23;;;2.60;;
11006;SDS011;8186;57.652;11.968;2023-12-20T08:30:20;10.40;;;2.90;;
11006;SDS011;8186;57.652;11.968;2023-12-20T08:32:47;12.63;;;2.57;;
11006;SDS011;8186;57.652;11.968;2023-12-20T08:35:14;15.40;;;2.73;;
11006;SDS011;8186;57.652;11.968;2023-12-20T08:37:40;17.87;;;3.67;;
11006;SDS011;8186;57.652;11.968;2023-12-20T08:40:09;11.27;;;2.57;;
11006;SDS011;8186;57.652;11.968;2023-12-20T08:42:36;12.47;;;2.63;;
11006;SDS011;8186;57.652;11.968;2023-12-20T08:45:03;15.23;;;3.50;;
11006;SDS011;8186;57.652;11.968;2023-12-20T08:47:30;12.63;;;3.17;;
11006;SDS011;8186;57.652;11.968;2023-12-20T08:49:57;13.40;;;2.17;;
11006;SDS011;8186;57.652;11.968;2023-12-20T08:52:25;19.63;;;3.60;;
11006;SDS011;8186;57.652;11.968;2023-12-20T08:54:52;18.40;;;3.57;;
11006;SDS011;8186;57.652;11.968;2023-12-20T08:57:20;18.10;;;3.03;;
11006;SDS011;8186;57.652;11.968;2023-12-20T08:59:48;15.57;;;3.47;;
11006;SDS011;8186;57.652;11.968;2023-12-20T09:02:16;12.57;;;2.50;;
11006;SDS011;8186;57.652;11.968;2023-12-20T09:04:43;19.93;;;3.17;;
11006;SDS011;8186;57.652;11.968;2023-12-20T09:07:20;14.77;;;3.77;;
11006;SDS011;8186;57.652;11.968;2023-12-20T09:09:47;15.47;;;3.70;;
11006;SDS011;8186;57.652;11.968;2023-12-20T09:12:14;17.57;;;3.97;;
11006;SDS011;8186;57.652;11.968;2023-12-20T09:14:42;13.90;;;3.40;;
11006;SDS011;8186;57.652;11.968;2023-12-20T09:17:09;17.67;;;3.87;;
11006;SDS011;8186;57.652;11.968;2023-12-20T09:19:37;21.57;;;3.77;;
11006;SDS011;8186;57.652;11.968;2023-12-20T09:22:04;20.93;;;4.87;;
11006;SDS011;8186;57.652;11.968;2023-12-20T09:24:30;18.50;;;3.53;;
11006;SDS011;8186;57.652;11.968;2023-12-20T09:26:57;14.93;;;2.83;;
11006;SDS011;8186;57.652;11.968;2023-12-20T09:29:24;20.80;;;4.23;;
11006;SDS011;8186;57.652;11.968;2023-12-20T09:31:52;14.10;;;3.20;;
11006;SDS011;8186;57.652;11.968;2023-12-20T09:34:19;14.37;;;3.00;;
11006;SDS011;8186;57.652;11.968;2023-12-20T09:36:46;13.93;;;4.13;;
11006;SDS011;8186;57.652;11.968;2023-12-20T09:39:13;16.50;;;3.47;;
11006;SDS011;8186;57.652;11.968;2023-12-20T09:41:41;23.03;;;3.67;;
11006;SDS011;8186;57.652;11.968;2023-12-20T09:44:10;16.30;;;3.33;;
11006;SDS011;8186;57.652;11.968;2023-12-20T09:46:39;14.27;;;3.00;;
11006;SDS011;8186;57.652;11.968;2023-12-20T09:49:11;15.40;;;3.10;;
11006;SDS011;8186;57.652;11.968;2023-12-20T09:51:38;12.67;;;3.10;;
11006;SDS011;8186;57.652;11.968;2023-12-20T09:54:06;15.03;;;2.60;;
11006;SDS011;8186;57.652;11.968;2023-12-20T09:56:32;15.50;;;3.83;;
11006;SDS011;8186;57.652;11.968;2023-12-20T09:59:00;20.63;;;4.23;;
11006;SDS011;8186;57.652;11.968;2023-12-20T10:01:27;15.50;;;3.67;;
11006;SDS011;8186;57.652;11.968;2023-12-20T10:03:54;20.83;;;4.60;;
11006;SDS011;8186;57.652;11.968;2023-12-20T10:06:22;20.47;;;3.80;;
11006;SDS011;8186;57.652;11.968;2023-12-20T10:08:49;17.03;;;3.43;;
11006;SDS011;8186;57.652;11.968;2023-12-20T10:11:16;18.80;;;3.60;;
11006;SDS011;8186;57.652;11.968;2023-12-20T10:13:43;19.83;;;3.70;;
11006;SDS011;8186;57.652;11.968;2023-12-20T10:16:09;22.43;;;4.10;;
11006;SDS011;8186;57.652;11.968;2023-12-20T10:18:36;17.43;;;3.83;;
11006;SDS011;8186;57.652;11.968;2023-12-20T10:21:03;16.37;;;3.27;;
11006;SDS011;8186;57.652;11.968;2023-12-20T10:23:32;12.17;;;3.13;;
11006;SDS011;8186;57.652;11.968;2023-12-20T10:25:59;18.00;;;4.00;;
11006;SDS011;8186;57.652;11.968;2023-12-20T10:28:26;16.50;;;3.30;;
11006;SDS011;8186;57.652;11.968;2023-12-20T10:30:54;19.70;;;4.17;;
11006;SDS011;8186;57.652;11.968;2023-12-20T10:33:25;19.63;;;3.57;;
11006;SDS011;8186;57.652;11.968;2023-12-20T10:35:52;17.57;;;3.77;;
11006;SDS011;8186;57.652;11.968;2023-12-20T10:38:19;19.00;;;3.50;;
11006;SDS011;8186;57.652;11.968;2023-12-20T10:40:47;13.97;;;3.83;;
11006;SDS011;8186;57.652;11.968;2023-12-20T10:43:14;15.10;;;4.00;;
11006;SDS011;8186;57.652;11.968;2023-12-20T10:45:41;15.90;;;3.80;;
11006;SDS011;8186;57.652;11.968;2023-12-20T10:48:09;13.90;;;3.77;;
11006;SDS011;8186;57.652;11.968;2023-12-20T10:50:36;14.37;;;3.77;;
11006;SDS011;8186;57.652;11.968;2023-12-20T10:53:05;16.50;;;3.97;;
11006;SDS011;8186;57.652;11.968;2023-12-20T10:55:33;21.70;;;4.10;;
11006;SDS011;8186;57.652;11.968;2023-12-20T10:58:03;23.30;;;3.73;;
11006;SDS011;8186;57.652;11.968;2023-12-20T11:00:33;14.00;;;3.77;;
11006;SDS011;8186;57.652;11.968;2023-12-20T11:03:03;16.73;;;3.90;;
11006;SDS011;8186;57.652;11.968;2023-12-20T11:05:33;16.43;;;4.80;;
11006;SDS011;8186;57.652;11.968;2023-12-20T11:08:06;16.57;;;4.20;;
11006;SDS011;8186;57.652;11.968;2023-12-20T11:10:37;14.57;;;4.40;;
11006;SDS011;8186;57.652;11.968;2023-12-20T11:13:10;13.67;;;4.23;;
11006;SDS011;8186;57.652;11.968;2023-12-20T11:15:40;14.20;;;3.63;;
11006;SDS011;8186;57.652;11.968;2023-12-20T11:18:07;20.13;;;4.17;;
11006;SDS011;8186;57.652;11.968;2023-12-20T11:20:36;21.63;;;5.37;;
11006;SDS011;8186;57.652;11.968;2023-12-20T11:23:04;16.37;;;4.20;;
11006;SDS011;8186;57.652;11.968;2023-12-20T11:25:34;19.73;;;4.60;;
11006;SDS011;8186;57.652;11.968;2023-12-20T11:28:14;16.27;;;4.63;;
11006;SDS011;8186;57.652;11.968;2023-12-20T11:30:46;19.60;;;5.27;;
11006;SDS011;8186;57.652;11.968;2023-12-20T11:33:14;18.77;;;4.40;;
11006;SDS011;8186;57.652;11.968;2023-12-20T11:35:41;20.73;;;4.87;;
11006;SDS011;8186;57.652;11.968;2023-12-20T11:38:08;18.47;;;4.97;;
11006;SDS011;8186;57.652;11.968;2023-12-20T11:40:35;18.17;;;4.50;;
11006;SDS011;8186;57.652;11.968;2023-12-20T11:43:03;19.37;;;4.70;;
11006;SDS011;8186;57.652;11.968;2023-12-20T11:45:32;17.67;;;4.97;;
11006;SDS011;8186;57.652;11.968;2023-12-20T11:48:00;16.93;;;5.20;;
11006;SDS011;8186;57.652;11.968;2023-12-20T11:50:28;18.33;;;6.03;;
11006;SDS011;8186;57.652;11.968;2023-12-20T11:52:56;22.73;;;5.40;;
11006;SDS011;8186;57.652;11.968;2023-12-20T11:55:23;18.47;;;5.47;;
11006;SDS011;8186;57.652;11.968;2023-12-20T11:57:50;23.60;;;5.50;;
11006;SDS011;8186;57.652;11.968;2023-12-20T12:00:17;18.20;;;5.97;;
11006;SDS011;8186;57.652;11.968;2023-12-20T12:02:56;13.93;;;5.40;;
11006;SDS011;8186;57.652;11.968;2023-12-20T12:05:23;15.97;;;5.10;;
11006;SDS011;8186;57.652;11.968;2023-12-20T12:07:51;11.30;;;4.87;;
11006;SDS011;8186;57.652;11.968;2023-12-20T12:10:17;18.47;;;4.33;;
11006;SDS011;8186;57.652;11.968;2023-12-20T12:12:44;20.33;;;5.50;;
11006;SDS011;8186;57.652;11.968;2023-12-20T12:15:11;17.60;;;4.60;;
11006;SDS011;8186;57.652;11.968;2023-12-20T12:17:38;13.07;;;4.67;;
11006;SDS011;8186;57.652;11.968;2023-12-20T12:20:06;13.70;;;4.40;;
11006;SDS011;8186;57.652;11.968;2023-12-20T12:22:35;16.23;;;5.00;;
11006;SDS011;8186;57.652;11.968;2023-12-20T12:25:09;13.67;;;4.10;;
11006;SDS011;8186;57.652;11.968;2023-12-20T12:27:38;15.27;;;4.07;;
11006;SDS011;8186;57.652;11.968;2023-12-20T12:30:06;11.07;;;4.50;;
11006;SDS011;8186;57.652;11.968;2023-12-20T12:32:34;16.00;;;4.20;;
11006;SDS011;8186;57.652;11.968;2023-12-20T12:35:02;12.80;;;4.30;;
11006;SDS011;8186;57.652;11.968;2023-12-20T12:37:31;11.63;;;3.53;;
11006;SDS011;8186;57.652;11.968;2023-12-20T12:39:58;12.77;;;3.80;;
11006;SDS011;8186;57.652;11.968;2023-12-20T12:42:24;10.53;;;3.70;;
11006;SDS011;8186;57.652;11.968;2023-12-20T12:44:54;10.37;;;3.47;;
11006;SDS011;8186;57.652;11.968;2023-12-20T12:47:20;12.37;;;3.77;;
11006;SDS011;8186;57.652;11.968;2023-12-20T12:49:49;14.47;;;3.77;;
11006;SDS011;8186;57.652;11.968;2023-12-20T12:52:16;12.37;;;3.30;;
11006;SDS011;8186;57.652;11.968;2023-12-20T12:54:44;19.10;;;3.67;;
11006;SDS011;8186;57.652;11.968;2023-12-20T12:57:13;13.10;;;4.07;;
11006;SDS011;8186;57.652;11.968;2023-12-20T12:59:40;9.97;;;3.40;;
11006;SDS011;8186;57.652;11.968;2023-12-20T13:02:07;13.97;;;4.27;;
11006;SDS011;8186;57.652;11.968;2023-12-20T13:04:34;10.13;;;4.07;;
11006;SDS011;8186;57.652;11.968;2023-12-20T13:07:01;11.00;;;4.00;;
11006;SDS011;8186;57.652;11.968;2023-12-20T13:09:28;10.53;;;3.60;;
11006;SDS011;8186;57.652;11.968;2023-12-20T13:11:56;7.77;;;3.00;;
11006;SDS011;8186;57.652;11.968;2023-12-20T13:14:24;11.17;;;3.20;;
11006;SDS011;8186;57.652;11.968;2023-12-20T13:16:50;9.13;;;4.37;;
11006;SDS011;8186;57.652;11.968;2023-12-20T13:19:17;9.30;;;3.00;;
11006;SDS011;8186;57.652;11.968;2023-12-20T13:21:44;11.77;;;3.63;;
11006;SDS011;8186;57.652;11.968;2023-12-20T13:24:11;10.53;;;3.20;;
11006;SDS011;8186;57.652;11.968;2023-12-20T13:26:38;6.17;;;3.57;;
11006;SDS011;8186;57.652;11.968;2023-12-20T13:29:06;10.30;;;4.07;;
11006;SDS011;8186;57.652;11.968;2023-12-20T13:31:33;10.43;;;3.43;;
11006;SDS011;8186;57.652;11.968;2023-12-20T13:34:01;8.23;;;3.30;;
11006;SDS011;8186;57.652;11.968;2023-12-20T13:36:28;10.10;;;3.70;;
11006;SDS011;8186;57.652;11.968;2023-12-20T13:38:55;6.43;;;3.07;;
11006;SDS011;8186;57.652;11.968;2023-12-20T13:41:21;11.87;;;3.50;;
11006;SDS011;8186;57.652;11.968;2023-12-20T13:43:48;7.17;;;3.83;;
11006;SDS011;8186;57.652;11.968;2023-12-20T13:46:17;10.93;;;3.70;;
11006;SDS011;8186;57.652;11.968;2023-12-20T13:48:44;7.60;;;3.47;;
11006;SDS011;8186;57.652;11.968;2023-12-20T13:51:10;10.43;;;3.83;;
11006;SDS011;8186;57.652;11.968;2023-12-20T13:53:37;11.10;;;4.03;;
11006;SDS011;8186;57.652;11.968;2023-12-20T13:56:05;7.20;;;3.53;;
11006;SDS011;8186;57.652;11.968;2023-12-20T13:58:32;7.27;;;3.43;;
11006;SDS011;8186;57.652;11.968;2023-12-20T14:00:59;10.53;;;4.07;;
11006;SDS011;8186;57.652;11.968;2023-12-20T14:03:27;10.33;;;3.80;;
11006;SDS011;8186;57.652;11.968;2023-12-20T14:05:53;7.03;;;3.30;;
11006;SDS011;8186;57.652;11.968;2023-12-20T14:08:21;10.47;;;4.00;;
11006;SDS011;8186;57.652;11.968;2023-12-20T14:10:48;9.07;;;3.30;;
11006;SDS011;8186;57.652;11.968;2023-12-20T14:13:15;6.90;;;3.40;;
11006;SDS011;8186;57.652;11.968;2023-12-20T14:15:42;10.97;;;3.50;;
11006;SDS011;8186;57.652;11.968;2023-12-20T14:18:09;9.87;;;3.33;;
11006;SDS011;8186;57.652;11.968;2023-12-20T14:20:39;6.13;;;3.53;;
11006;SDS011;8186;57.652;11.968;2023-12-20T14:23:07;11.20;;;3.83;;
11006;SDS011;8186;57.652;11.968;2023-12-20T14:25:34;9.47;;;3.47;;
11006;SDS011;8186;57.652;11.968;2023-12-20T14:28:02;12.60;;;3.87;;
11006;SDS011;8186;57.652;11.968;2023-12-20T14:30:30;9.93;;;3.77;;
11006;SDS011;8186;57.652;11.968;2023-12-20T14:32:57;9.60;;;3.40;;
11006;SDS011;8186;57.652;11.968;2023-12-20T14:35:24;6.83;;;3.00;;
11006;SDS011;8186;57.652;11.968;2023-12-20T14:37:52;6.97;;;3.63;;